Wawanesa, Canada
Current Conditions -  °F | °C
As of 3:37 AM on Saturday 20 Dec 2014 (Local Time) from CYBR Reporting Station
Freezing Drizzle Freezing Drizzle  
Wind Chill: 23°   Ceiling: 800
Heat Index: 23°   Visibility: 5mi
Dew Point: 23°   Wind: 3mph
Humidity: 100%   Direction: 70°ENE
Pressure: 29.95"   Gusts: NA
Location:  49.52°N, 99.68°W
Report Text: CYBR 200937Z 07003KT 5SM -FZDZ BR OVC008 M05/M05 A2995 RMK ST8 SLP171
Loading
Personal Weather Stations






























Interactive Weather Map New forecast layout! Learn more

10-Day Weather Forecast

Advertisements
Track Severe Weather on mobile